Terminal Aerodrome Forecast
Issued by NWS

Home | Current Version | Previous Version | Graphics & Text | Print | Product List | Glossary On
Versions: 1 2 3 4 5 6 7 8 9 10 11 12 13 14
000
FTUS42 KMHX 032339
TAFPGV
TAF
KPGV 032339Z 0400/0424 22005KT P6SM VCSH SCT015 BKN060
     FM040500 21007KT P6SM BKN015
     FM041200 24014G24KT P6SM SCT050
      AMD LTD TO CLD VIS AND WIND=

USA.gov is the U.S. government's official web portal to all federal, state and local government web resources and services.